sensor_id;sensor_type;location;lat;lon;timestamp;P1;durP1;ratioP1;P2;durP2;ratioP2
54575;SDS011;40472;53.486;14.542;2023-02-15T00:01:36;48.08;;;19.70;;
54575;SDS011;40472;53.486;14.542;2023-02-15T00:04:03;50.80;;;20.75;;
54575;SDS011;40472;53.486;14.542;2023-02-15T00:06:29;56.80;;;21.27;;
54575;SDS011;40472;53.486;14.542;2023-02-15T00:08:56;56.47;;;22.13;;
54575;SDS011;40472;53.486;14.542;2023-02-15T00:11:22;52.15;;;21.55;;
54575;SDS011;40472;53.486;14.542;2023-02-15T00:14:12;53.80;;;21.70;;
54575;SDS011;40472;53.486;14.542;2023-02-15T00:16:40;57.00;;;20.30;;
54575;SDS011;40472;53.486;14.542;2023-02-15T00:19:08;56.65;;;21.38;;
54575;SDS011;40472;53.486;14.542;2023-02-15T00:21:35;61.85;;;21.30;;
54575;SDS011;40472;53.486;14.542;2023-02-15T00:24:02;58.33;;;21.38;;
54575;SDS011;40472;53.486;14.542;2023-02-15T00:26:30;52.25;;;19.92;;
54575;SDS011;40472;53.486;14.542;2023-02-15T00:28:56;53.45;;;20.38;;
54575;SDS011;40472;53.486;14.542;2023-02-15T00:31:25;57.50;;;20.73;;
54575;SDS011;40472;53.486;14.542;2023-02-15T00:33:52;58.50;;;21.67;;
54575;SDS011;40472;53.486;14.542;2023-02-15T00:36:19;59.50;;;19.90;;
54575;SDS011;40472;53.486;14.542;2023-02-15T00:38:45;60.40;;;21.20;;
54575;SDS011;40472;53.486;14.542;2023-02-15T00:41:11;44.22;;;19.50;;
54575;SDS011;40472;53.486;14.542;2023-02-15T00:43:37;50.30;;;19.33;;
54575;SDS011;40472;53.486;14.542;2023-02-15T00:46:07;49.60;;;20.08;;
54575;SDS011;40472;53.486;14.542;2023-02-15T00:48:33;59.25;;;20.85;;
54575;SDS011;40472;53.486;14.542;2023-02-15T00:50:59;50.47;;;20.85;;
54575;SDS011;40472;53.486;14.542;2023-02-15T00:53:26;55.83;;;20.48;;
54575;SDS011;40472;53.486;14.542;2023-02-15T00:55:53;51.13;;;20.73;;
54575;SDS011;40472;53.486;14.542;2023-02-15T00:58:19;46.15;;;18.67;;
54575;SDS011;40472;53.486;14.542;2023-02-15T01:00:45;55.53;;;21.42;;
54575;SDS011;40472;53.486;14.542;2023-02-15T01:03:12;57.55;;;20.67;;
54575;SDS011;40472;53.486;14.542;2023-02-15T01:05:39;53.95;;;20.27;;
54575;SDS011;40472;53.486;14.542;2023-02-15T01:08:05;49.30;;;18.40;;
54575;SDS011;40472;53.486;14.542;2023-02-15T01:10:36;52.05;;;21.13;;
54575;SDS011;40472;53.486;14.542;2023-02-15T01:13:03;53.15;;;21.35;;
54575;SDS011;40472;53.486;14.542;2023-02-15T01:15:29;49.38;;;20.65;;
54575;SDS011;40472;53.486;14.542;2023-02-15T01:17:55;52.78;;;19.55;;
54575;SDS011;40472;53.486;14.542;2023-02-15T01:20:22;55.47;;;19.17;;
54575;SDS011;40472;53.486;14.542;2023-02-15T01:22:50;52.20;;;20.98;;
54575;SDS011;40472;53.486;14.542;2023-02-15T01:25:17;53.22;;;19.65;;
54575;SDS011;40472;53.486;14.542;2023-02-15T01:27:46;52.55;;;20.60;;
54575;SDS011;40472;53.486;14.542;2023-02-15T01:30:13;51.13;;;20.02;;
54575;SDS011;40472;53.486;14.542;2023-02-15T01:32:40;49.72;;;19.90;;
54575;SDS011;40472;53.486;14.542;2023-02-15T01:35:06;57.35;;;20.13;;
54575;SDS011;40472;53.486;14.542;2023-02-15T01:37:33;46.83;;;19.27;;
54575;SDS011;40472;53.486;14.542;2023-02-15T01:40:00;53.65;;;19.85;;
54575;SDS011;40472;53.486;14.542;2023-02-15T01:42:28;58.08;;;21.42;;
54575;SDS011;40472;53.486;14.542;2023-02-15T01:44:56;50.05;;;18.95;;
54575;SDS011;40472;53.486;14.542;2023-02-15T01:50:03;47.08;;;19.65;;
54575;SDS011;40472;53.486;14.542;2023-02-15T01:52:38;59.85;;;20.38;;
54575;SDS011;40472;53.486;14.542;2023-02-15T01:55:16;54.05;;;20.80;;
54575;SDS011;40472;53.486;14.542;2023-02-15T01:57:43;52.55;;;21.20;;
54575;SDS011;40472;53.486;14.542;2023-02-15T02:00:11;45.50;;;19.60;;
54575;SDS011;40472;53.486;14.542;2023-02-15T02:02:38;58.38;;;20.77;;
54575;SDS011;40472;53.486;14.542;2023-02-15T02:05:06;54.15;;;20.58;;
54575;SDS011;40472;53.486;14.542;2023-02-15T02:07:34;50.13;;;20.17;;
54575;SDS011;40472;53.486;14.542;2023-02-15T02:10:04;41.70;;;18.85;;
54575;SDS011;40472;53.486;14.542;2023-02-15T02:12:34;53.15;;;18.23;;
54575;SDS011;40472;53.486;14.542;2023-02-15T02:15:03;46.97;;;17.50;;
54575;SDS011;40472;53.486;14.542;2023-02-15T02:45:07;49.30;;;16.58;;
54575;SDS011;40472;53.486;14.542;2023-02-15T02:47:43;45.67;;;17.52;;
54575;SDS011;40472;53.486;14.542;2023-02-15T02:50:29;46.90;;;18.58;;
54575;SDS011;40472;53.486;14.542;2023-02-15T02:52:56;48.80;;;18.23;;
54575;SDS011;40472;53.486;14.542;2023-02-15T03:00:34;51.90;;;19.00;;
54575;SDS011;40472;53.486;14.542;2023-02-15T03:03:12;56.17;;;18.92;;
54575;SDS011;40472;53.486;14.542;2023-02-15T03:05:44;48.88;;;17.73;;
54575;SDS011;40472;53.486;14.542;2023-02-15T03:08:14;52.35;;;18.83;;
54575;SDS011;40472;53.486;14.542;2023-02-15T03:10:46;52.05;;;20.52;;
54575;SDS011;40472;53.486;14.542;2023-02-15T03:13:21;46.53;;;17.67;;
54575;SDS011;40472;53.486;14.542;2023-02-15T03:15:47;50.78;;;19.08;;
54575;SDS011;40472;53.486;14.542;2023-02-15T03:18:38;53.58;;;19.05;;
54575;SDS011;40472;53.486;14.542;2023-02-15T03:21:19;57.15;;;19.85;;
54575;SDS011;40472;53.486;14.542;2023-02-15T03:23:53;53.47;;;19.92;;
54575;SDS011;40472;53.486;14.542;2023-02-15T03:26:24;59.67;;;20.05;;
54575;SDS011;40472;53.486;14.542;2023-02-15T03:28:52;58.60;;;20.58;;
54575;SDS011;40472;53.486;14.542;2023-02-15T03:31:22;47.10;;;17.90;;
54575;SDS011;40472;53.486;14.542;2023-02-15T03:34:02;57.22;;;18.52;;
54575;SDS011;40472;53.486;14.542;2023-02-15T03:42:19;48.05;;;17.25;;
54575;SDS011;40472;53.486;14.542;2023-02-15T03:47:27;50.47;;;17.92;;
54575;SDS011;40472;53.486;14.542;2023-02-15T03:50:00;46.75;;;18.35;;
54575;SDS011;40472;53.486;14.542;2023-02-15T03:52:59;54.13;;;18.65;;
54575;SDS011;40472;53.486;14.542;2023-02-15T03:55:27;49.90;;;17.80;;
54575;SDS011;40472;53.486;14.542;2023-02-15T03:57:53;53.10;;;18.13;;
54575;SDS011;40472;53.486;14.542;2023-02-15T04:00:38;53.25;;;17.38;;
54575;SDS011;40472;53.486;14.542;2023-02-15T04:03:31;50.50;;;18.40;;
54575;SDS011;40472;53.486;14.542;2023-02-15T04:06:04;54.37;;;18.43;;
54575;SDS011;40472;53.486;14.542;2023-02-15T04:08:30;48.72;;;18.13;;
54575;SDS011;40472;53.486;14.542;2023-02-15T04:11:14;51.70;;;17.77;;
54575;SDS011;40472;53.486;14.542;2023-02-15T04:13:41;47.13;;;18.30;;
54575;SDS011;40472;53.486;14.542;2023-02-15T04:16:06;44.40;;;17.27;;
54575;SDS011;40472;53.486;14.542;2023-02-15T04:18:33;54.08;;;19.88;;
54575;SDS011;40472;53.486;14.542;2023-02-15T04:21:23;42.92;;;18.20;;
54575;SDS011;40472;53.486;14.542;2023-02-15T04:24:08;46.85;;;19.65;;
54575;SDS011;40472;53.486;14.542;2023-02-15T04:26:53;46.58;;;17.42;;
54575;SDS011;40472;53.486;14.542;2023-02-15T04:29:20;48.05;;;18.55;;
54575;SDS011;40472;53.486;14.542;2023-02-15T04:31:47;46.38;;;18.05;;
54575;SDS011;40472;53.486;14.542;2023-02-15T04:34:13;51.13;;;16.60;;
54575;SDS011;40472;53.486;14.542;2023-02-15T04:36:39;44.05;;;17.65;;
54575;SDS011;40472;53.486;14.542;2023-02-15T04:39:05;50.53;;;17.60;;
54575;SDS011;40472;53.486;14.542;2023-02-15T04:41:32;50.38;;;17.48;;
54575;SDS011;40472;53.486;14.542;2023-02-15T04:43:59;48.75;;;19.33;;
54575;SDS011;40472;53.486;14.542;2023-02-15T04:46:25;46.30;;;18.48;;
54575;SDS011;40472;53.486;14.542;2023-02-15T04:48:54;49.80;;;17.10;;
54575;SDS011;40472;53.486;14.542;2023-02-15T04:51:20;55.53;;;19.27;;
54575;SDS011;40472;53.486;14.542;2023-02-15T04:53:46;53.65;;;17.63;;
54575;SDS011;40472;53.486;14.542;2023-02-15T04:56:12;54.22;;;18.58;;
54575;SDS011;40472;53.486;14.542;2023-02-15T04:58:37;47.33;;;17.33;;
54575;SDS011;40472;53.486;14.542;2023-02-15T05:01:06;52.05;;;19.08;;
54575;SDS011;40472;53.486;14.542;2023-02-15T05:03:33;46.70;;;17.65;;
54575;SDS011;40472;53.486;14.542;2023-02-15T05:05:58;49.15;;;18.88;;
54575;SDS011;40472;53.486;14.542;2023-02-15T05:08:24;53.22;;;18.48;;
54575;SDS011;40472;53.486;14.542;2023-02-15T05:10:50;62.60;;;20.33;;
54575;SDS011;40472;53.486;14.542;2023-02-15T05:13:16;49.47;;;18.33;;
54575;SDS011;40472;53.486;14.542;2023-02-15T05:15:46;52.67;;;19.30;;
54575;SDS011;40472;53.486;14.542;2023-02-15T05:18:13;54.58;;;19.85;;
54575;SDS011;40472;53.486;14.542;2023-02-15T05:20:40;64.35;;;21.13;;
54575;SDS011;40472;53.486;14.542;2023-02-15T05:23:06;55.60;;;20.40;;
54575;SDS011;40472;53.486;14.542;2023-02-15T05:25:31;51.03;;;18.20;;
54575;SDS011;40472;53.486;14.542;2023-02-15T05:28:16;53.60;;;18.40;;
54575;SDS011;40472;53.486;14.542;2023-02-15T05:30:45;44.78;;;18.73;;
54575;SDS011;40472;53.486;14.542;2023-02-15T05:33:37;51.45;;;19.63;;
54575;SDS011;40472;53.486;14.542;2023-02-15T05:36:03;53.55;;;19.70;;
54575;SDS011;40472;53.486;14.542;2023-02-15T05:38:29;53.00;;;18.98;;
54575;SDS011;40472;53.486;14.542;2023-02-15T05:40:56;44.50;;;18.85;;
54575;SDS011;40472;53.486;14.542;2023-02-15T05:43:22;54.03;;;20.35;;
54575;SDS011;40472;53.486;14.542;2023-02-15T05:45:51;58.17;;;19.90;;
54575;SDS011;40472;53.486;14.542;2023-02-15T05:48:19;54.78;;;19.50;;
54575;SDS011;40472;53.486;14.542;2023-02-15T05:50:56;50.58;;;18.75;;
54575;SDS011;40472;53.486;14.542;2023-02-15T05:53:38;53.28;;;19.33;;
54575;SDS011;40472;53.486;14.542;2023-02-15T05:56:05;55.22;;;20.67;;
54575;SDS011;40472;53.486;14.542;2023-02-15T05:58:34;52.05;;;19.30;;
54575;SDS011;40472;53.486;14.542;2023-02-15T06:01:08;54.75;;;20.83;;
54575;SDS011;40472;53.486;14.542;2023-02-15T06:03:42;65.00;;;21.65;;
54575;SDS011;40472;53.486;14.542;2023-02-15T06:06:08;55.03;;;21.10;;
54575;SDS011;40472;53.486;14.542;2023-02-15T06:08:41;54.63;;;21.63;;
54575;SDS011;40472;53.486;14.542;2023-02-15T06:11:07;60.05;;;21.80;;
54575;SDS011;40472;53.486;14.542;2023-02-15T06:13:33;56.92;;;20.48;;
54575;SDS011;40472;53.486;14.542;2023-02-15T06:15:59;59.88;;;23.27;;
54575;SDS011;40472;53.486;14.542;2023-02-15T06:18:25;55.88;;;20.85;;
54575;SDS011;40472;53.486;14.542;2023-02-15T06:20:51;58.47;;;21.30;;
54575;SDS011;40472;53.486;14.542;2023-02-15T06:23:17;59.55;;;20.45;;
54575;SDS011;40472;53.486;14.542;2023-02-15T06:25:44;50.00;;;20.85;;
54575;SDS011;40472;53.486;14.542;2023-02-15T06:28:10;53.65;;;20.70;;
54575;SDS011;40472;53.486;14.542;2023-02-15T06:30:36;60.80;;;19.58;;
54575;SDS011;40472;53.486;14.542;2023-02-15T06:33:02;55.15;;;20.90;;
54575;SDS011;40472;53.486;14.542;2023-02-15T06:35:28;56.67;;;19.60;;
54575;SDS011;40472;53.486;14.542;2023-02-15T06:37:54;54.67;;;21.15;;
54575;SDS011;40472;53.486;14.542;2023-02-15T06:40:20;64.53;;;21.80;;
54575;SDS011;40472;53.486;14.542;2023-02-15T06:42:45;68.18;;;23.85;;
54575;SDS011;40472;53.486;14.542;2023-02-15T06:45:11;77.18;;;28.65;;
54575;SDS011;40472;53.486;14.542;2023-02-15T06:47:37;97.65;;;32.58;;
54575;SDS011;40472;53.486;14.542;2023-02-15T06:50:04;92.35;;;32.45;;
54575;SDS011;40472;53.486;14.542;2023-02-15T06:52:31;96.68;;;29.48;;
54575;SDS011;40472;53.486;14.542;2023-02-15T06:54:57;94.28;;;29.38;;
54575;SDS011;40472;53.486;14.542;2023-02-15T06:57:22;83.65;;;29.88;;
54575;SDS011;40472;53.486;14.542;2023-02-15T06:59:48;86.70;;;29.75;;
54575;SDS011;40472;53.486;14.542;2023-02-15T07:02:14;90.88;;;31.27;;
54575;SDS011;40472;53.486;14.542;2023-02-15T07:04:40;72.28;;;25.02;;
54575;SDS011;40472;53.486;14.542;2023-02-15T07:07:09;59.22;;;23.50;;
54575;SDS011;40472;53.486;14.542;2023-02-15T07:09:36;85.45;;;27.58;;
54575;SDS011;40472;53.486;14.542;2023-02-15T07:12:02;70.72;;;24.17;;
54575;SDS011;40472;53.486;14.542;2023-02-15T07:14:47;77.38;;;27.98;;
54575;SDS011;40472;53.486;14.542;2023-02-15T07:17:12;72.65;;;25.33;;
54575;SDS011;40472;53.486;14.542;2023-02-15T07:19:38;96.55;;;30.52;;
54575;SDS011;40472;53.486;14.542;2023-02-15T07:22:04;77.40;;;25.27;;
54575;SDS011;40472;53.486;14.542;2023-02-15T07:24:30;80.03;;;26.17;;
54575;SDS011;40472;53.486;14.542;2023-02-15T07:26:56;77.70;;;27.27;;
54575;SDS011;40472;53.486;14.542;2023-02-15T07:29:25;91.70;;;31.52;;
54575;SDS011;40472;53.486;14.542;2023-02-15T07:31:50;82.00;;;28.50;;
54575;SDS011;40472;53.486;14.542;2023-02-15T07:34:16;90.47;;;26.70;;
54575;SDS011;40472;53.486;14.542;2023-02-15T07:36:42;71.18;;;24.90;;
54575;SDS011;40472;53.486;14.542;2023-02-15T07:39:11;72.82;;;25.90;;
54575;SDS011;40472;53.486;14.542;2023-02-15T07:41:37;81.03;;;28.65;;
54575;SDS011;40472;53.486;14.542;2023-02-15T07:44:03;76.07;;;26.70;;
54575;SDS011;40472;53.486;14.542;2023-02-15T07:46:29;96.90;;;33.35;;
54575;SDS011;40472;53.486;14.542;2023-02-15T07:48:55;97.90;;;31.33;;
54575;SDS011;40472;53.486;14.542;2023-02-15T07:51:21;90.35;;;30.38;;
54575;SDS011;40472;53.486;14.542;2023-02-15T07:53:46;81.75;;;27.85;;
54575;SDS011;40472;53.486;14.542;2023-02-15T07:56:13;90.72;;;28.83;;
54575;SDS011;40472;53.486;14.542;2023-02-15T07:58:39;70.55;;;23.70;;
54575;SDS011;40472;53.486;14.542;2023-02-15T08:03:45;62.45;;;25.15;;
54575;SDS011;40472;53.486;14.542;2023-02-15T08:06:11;76.18;;;26.98;;
54575;SDS011;40472;53.486;14.542;2023-02-15T08:08:38;78.15;;;26.15;;
54575;SDS011;40472;53.486;14.542;2023-02-15T08:14:13;69.22;;;22.90;;
54575;SDS011;40472;53.486;14.542;2023-02-15T08:21:39;67.82;;;23.63;;
54575;SDS011;40472;53.486;14.542;2023-02-15T08:24:08;75.47;;;26.55;;
54575;SDS011;40472;53.486;14.542;2023-02-15T08:26:34;77.15;;;23.70;;
54575;SDS011;40472;53.486;14.542;2023-02-15T08:29:01;78.18;;;25.05;;
54575;SDS011;40472;53.486;14.542;2023-02-15T08:31:28;103.72;;;32.45;;
54575;SDS011;40472;53.486;14.542;2023-02-15T08:33:54;72.88;;;25.48;;
54575;SDS011;40472;53.486;14.542;2023-02-15T08:36:23;88.38;;;31.02;;
54575;SDS011;40472;53.486;14.542;2023-02-15T08:38:50;132.80;;;46.35;;
54575;SDS011;40472;53.486;14.542;2023-02-15T08:43:51;91.68;;;29.67;;
54575;SDS011;40472;53.486;14.542;2023-02-15T08:46:19;77.30;;;22.90;;
54575;SDS011;40472;53.486;14.542;2023-02-15T08:48:46;53.60;;;20.20;;
54575;SDS011;40472;53.486;14.542;2023-02-15T08:51:13;89.18;;;30.15;;
54575;SDS011;40472;53.486;14.542;2023-02-15T08:53:42;96.43;;;29.83;;
54575;SDS011;40472;53.486;14.542;2023-02-15T08:56:10;96.85;;;31.15;;
54575;SDS011;40472;53.486;14.542;2023-02-15T08:58:36;95.72;;;32.55;;
54575;SDS011;40472;53.486;14.542;2023-02-15T09:01:10;80.32;;;25.95;;
54575;SDS011;40472;53.486;14.542;2023-02-15T09:03:38;114.03;;;36.35;;
54575;SDS011;40472;53.486;14.542;2023-02-15T09:06:04;84.78;;;29.00;;
54575;SDS011;40472;53.486;14.542;2023-02-15T09:08:31;75.07;;;24.88;;
54575;SDS011;40472;53.486;14.542;2023-02-15T09:13:34;70.63;;;24.67;;
54575;SDS011;40472;53.486;14.542;2023-02-15T09:16:05;55.83;;;21.95;;
54575;SDS011;40472;53.486;14.542;2023-02-15T09:18:34;69.50;;;26.08;;
54575;SDS011;40472;53.486;14.542;2023-02-15T09:21:11;62.20;;;23.10;;
54575;SDS011;40472;53.486;14.542;2023-02-15T09:23:39;86.72;;;28.77;;
54575;SDS011;40472;53.486;14.542;2023-02-15T09:26:06;90.18;;;31.98;;
54575;SDS011;40472;53.486;14.542;2023-02-15T09:28:37;68.72;;;22.90;;
54575;SDS011;40472;53.486;14.542;2023-02-15T09:31:04;98.65;;;35.13;;
54575;SDS011;40472;53.486;14.542;2023-02-15T09:33:35;69.57;;;25.63;;
54575;SDS011;40472;53.486;14.542;2023-02-15T09:36:05;81.63;;;30.75;;
54575;SDS011;40472;53.486;14.542;2023-02-15T09:38:38;69.47;;;27.70;;
54575;SDS011;40472;53.486;14.542;2023-02-15T09:55:48;44.40;;;18.50;;
54575;SDS011;40472;53.486;14.542;2023-02-15T10:12:49;68.82;;;24.42;;
54575;SDS011;40472;53.486;14.542;2023-02-15T10:15:43;38.75;;;16.55;;
54575;SDS011;40472;53.486;14.542;2023-02-15T10:21:32;49.15;;;19.73;;
54575;SDS011;40472;53.486;14.542;2023-02-15T10:23:57;84.63;;;32.63;;
54575;SDS011;40472;53.486;14.542;2023-02-15T10:26:48;55.58;;;22.83;;
54575;SDS011;40472;53.486;14.542;2023-02-15T10:32:05;70.65;;;28.27;;
54575;SDS011;40472;53.486;14.542;2023-02-15T10:40:25;85.55;;;34.00;;
54575;SDS011;40472;53.486;14.542;2023-02-15T10:43:02;82.00;;;33.78;;
54575;SDS011;40472;53.486;14.542;2023-02-15T10:45:46;42.08;;;18.48;;
54575;SDS011;40472;53.486;14.542;2023-02-15T10:51:10;33.25;;;15.35;;
54575;SDS011;40472;53.486;14.542;2023-02-15T10:54:02;43.20;;;18.13;;
54575;SDS011;40472;53.486;14.542;2023-02-15T10:57:03;58.35;;;24.05;;
54575;SDS011;40472;53.486;14.542;2023-02-15T11:03:05;48.00;;;17.10;;
54575;SDS011;40472;53.486;14.542;2023-02-15T11:05:42;66.88;;;25.00;;
54575;SDS011;40472;53.486;14.542;2023-02-15T11:08:19;33.45;;;16.20;;
54575;SDS011;40472;53.486;14.542;2023-02-15T11:10:59;48.97;;;18.25;;
54575;SDS011;40472;53.486;14.542;2023-02-15T11:13:34;37.53;;;16.58;;
54575;SDS011;40472;53.486;14.542;2023-02-15T11:16:17;30.45;;;15.20;;
54575;SDS011;40472;53.486;14.542;2023-02-15T11:18:57;55.83;;;21.80;;
54575;SDS011;40472;53.486;14.542;2023-02-15T11:23:50;24.55;;;12.35;;
54575;SDS011;40472;53.486;14.542;2023-02-15T11:29:10;60.90;;;23.77;;
54575;SDS011;40472;53.486;14.542;2023-02-15T11:31:50;58.15;;;22.17;;
54575;SDS011;40472;53.486;14.542;2023-02-15T11:34:49;62.10;;;25.75;;
54575;SDS011;40472;53.486;14.542;2023-02-15T11:37:44;49.38;;;21.30;;
54575;SDS011;40472;53.486;14.542;2023-02-15T11:40:57;53.78;;;23.52;;
54575;SDS011;40472;53.486;14.542;2023-02-15T11:43:23;53.83;;;22.90;;
54575;SDS011;40472;53.486;14.542;2023-02-15T11:46:02;50.38;;;21.73;;
54575;SDS011;40472;53.486;14.542;2023-02-15T11:48:30;27.92;;;13.48;;
54575;SDS011;40472;53.486;14.542;2023-02-15T11:50:57;58.92;;;24.38;;
54575;SDS011;40472;53.486;14.542;2023-02-15T11:53:24;46.78;;;19.27;;
54575;SDS011;40472;53.486;14.542;2023-02-15T11:55:54;39.97;;;16.33;;
54575;SDS011;40472;53.486;14.542;2023-02-15T11:58:32;52.45;;;22.33;;
54575;SDS011;40472;53.486;14.542;2023-02-15T12:01:40;37.88;;;15.73;;
54575;SDS011;40472;53.486;14.542;2023-02-15T12:07:03;62.00;;;24.88;;
54575;SDS011;40472;53.486;14.542;2023-02-15T12:12:22;50.45;;;20.27;;
54575;SDS011;40472;53.486;14.542;2023-02-15T12:14:53;59.05;;;23.05;;
54575;SDS011;40472;53.486;14.542;2023-02-15T12:17:24;37.83;;;18.42;;
54575;SDS011;40472;53.486;14.542;2023-02-15T12:19:55;25.02;;;12.63;;
54575;SDS011;40472;53.486;14.542;2023-02-15T12:22:51;40.03;;;16.63;;
54575;SDS011;40472;53.486;14.542;2023-02-15T12:25:21;17.80;;;9.70;;
54575;SDS011;40472;53.486;14.542;2023-02-15T12:27:50;54.33;;;21.52;;
54575;SDS011;40472;53.486;14.542;2023-02-15T12:38:33;44.47;;;19.83;;
54575;SDS011;40472;53.486;14.542;2023-02-15T12:43:37;54.75;;;22.95;;
54575;SDS011;40472;53.486;14.542;2023-02-15T12:48:45;57.85;;;24.95;;
54575;SDS011;40472;53.486;14.542;2023-02-15T12:51:13;46.67;;;19.15;;
54575;SDS011;40472;53.486;14.542;2023-02-15T12:53:40;51.22;;;20.90;;
54575;SDS011;40472;53.486;14.542;2023-02-15T12:56:07;31.60;;;16.02;;
54575;SDS011;40472;53.486;14.542;2023-02-15T12:58:38;40.80;;;16.77;;
54575;SDS011;40472;53.486;14.542;2023-02-15T13:03:34;50.88;;;21.90;;
54575;SDS011;40472;53.486;14.542;2023-02-15T13:06:02;45.33;;;17.00;;
54575;SDS011;40472;53.486;14.542;2023-02-15T13:08:46;42.58;;;16.05;;
54575;SDS011;40472;53.486;14.542;2023-02-15T13:11:27;33.10;;;13.85;;
54575;SDS011;40472;53.486;14.542;2023-02-15T13:14:00;56.50;;;23.40;;
54575;SDS011;40472;53.486;14.542;2023-02-15T13:18:57;32.83;;;13.95;;
54575;SDS011;40472;53.486;14.542;2023-02-15T13:21:33;36.35;;;13.88;;
54575;SDS011;40472;53.486;14.542;2023-02-15T13:24:10;52.97;;;20.38;;
54575;SDS011;40472;53.486;14.542;2023-02-15T13:26:52;24.50;;;12.60;;
54575;SDS011;40472;53.486;14.542;2023-02-15T13:29:22;61.28;;;25.90;;
54575;SDS011;40472;53.486;14.542;2023-02-15T13:31:53;51.42;;;21.27;;
54575;SDS011;40472;53.486;14.542;2023-02-15T13:34:31;51.95;;;22.45;;
54575;SDS011;40472;53.486;14.542;2023-02-15T13:37:19;50.38;;;20.10;;
54575;SDS011;40472;53.486;14.542;2023-02-15T13:40:04;54.08;;;21.10;;
54575;SDS011;40472;53.486;14.542;2023-02-15T13:45:35;59.38;;;25.52;;
54575;SDS011;40472;53.486;14.542;2023-02-15T13:48:29;62.25;;;27.45;;
54575;SDS011;40472;53.486;14.542;2023-02-15T13:59:12;36.13;;;14.88;;
54575;SDS011;40472;53.486;14.542;2023-02-15T14:13:03;43.83;;;19.35;;
54575;SDS011;40472;53.486;14.542;2023-02-15T14:15:57;50.47;;;21.83;;
54575;SDS011;40472;53.486;14.542;2023-02-15T14:18:36;60.47;;;22.25;;
54575;SDS011;40472;53.486;14.542;2023-02-15T14:24:00;54.33;;;22.83;;
54575;SDS011;40472;53.486;14.542;2023-02-15T14:29:28;58.70;;;24.13;;
54575;SDS011;40472;53.486;14.542;2023-02-15T14:35:03;52.78;;;19.65;;
54575;SDS011;40472;53.486;14.542;2023-02-15T14:40:37;59.88;;;23.25;;
54575;SDS011;40472;53.486;14.542;2023-02-15T14:43:44;57.83;;;23.70;;
54575;SDS011;40472;53.486;14.542;2023-02-15T14:49:06;59.10;;;22.83;;
54575;SDS011;40472;53.486;14.542;2023-02-15T14:56:46;64.22;;;26.52;;
54575;SDS011;40472;53.486;14.542;2023-02-15T15:02:23;36.75;;;16.70;;
54575;SDS011;40472;53.486;14.542;2023-02-15T15:07:25;64.10;;;24.48;;
54575;SDS011;40472;53.486;14.542;2023-02-15T15:10:03;61.50;;;24.13;;
54575;SDS011;40472;53.486;14.542;2023-02-15T15:12:41;62.15;;;26.23;;
54575;SDS011;40472;53.486;14.542;2023-02-15T15:15:13;49.38;;;21.23;;
54575;SDS011;40472;53.486;14.542;2023-02-15T15:20:42;63.67;;;24.77;;
54575;SDS011;40472;53.486;14.542;2023-02-15T15:25:44;64.45;;;23.85;;
54575;SDS011;40472;53.486;14.542;2023-02-15T15:31:45;73.72;;;26.77;;
54575;SDS011;40472;53.486;14.542;2023-02-15T15:39:21;75.05;;;28.75;;
54575;SDS011;40472;53.486;14.542;2023-02-15T15:50:34;75.75;;;28.17;;
54575;SDS011;40472;53.486;14.542;2023-02-15T15:53:03;75.25;;;28.38;;
54575;SDS011;40472;53.486;14.542;2023-02-15T15:55:31;69.55;;;26.58;;
54575;SDS011;40472;53.486;14.542;2023-02-15T15:58:00;67.97;;;26.60;;
54575;SDS011;40472;53.486;14.542;2023-02-15T16:00:32;59.97;;;24.35;;
54575;SDS011;40472;53.486;14.542;2023-02-15T16:03:23;86.32;;;29.92;;
54575;SDS011;40472;53.486;14.542;2023-02-15T16:05:50;83.07;;;29.85;;
54575;SDS011;40472;53.486;14.542;2023-02-15T16:10:58;87.30;;;30.67;;
54575;SDS011;40472;53.486;14.542;2023-02-15T16:13:25;94.30;;;31.98;;
54575;SDS011;40472;53.486;14.542;2023-02-15T16:15:53;89.22;;;33.40;;
54575;SDS011;40472;53.486;14.542;2023-02-15T16:18:22;89.20;;;31.10;;
54575;SDS011;40472;53.486;14.542;2023-02-15T16:20:57;90.07;;;30.83;;
54575;SDS011;40472;53.486;14.542;2023-02-15T16:28:49;71.82;;;28.30;;
54575;SDS011;40472;53.486;14.542;2023-02-15T16:31:17;84.90;;;27.85;;
54575;SDS011;40472;53.486;14.542;2023-02-15T16:33:44;94.15;;;28.25;;
54575;SDS011;40472;53.486;14.542;2023-02-15T16:36:11;66.07;;;25.02;;
54575;SDS011;40472;53.486;14.542;2023-02-15T16:41:21;47.42;;;19.83;;
54575;SDS011;40472;53.486;14.542;2023-02-15T16:43:48;65.40;;;23.25;;
54575;SDS011;40472;53.486;14.542;2023-02-15T16:48:44;80.30;;;29.58;;
54575;SDS011;40472;53.486;14.542;2023-02-15T16:51:23;76.65;;;25.63;;
54575;SDS011;40472;53.486;14.542;2023-02-15T16:53:51;81.47;;;28.38;;
54575;SDS011;40472;53.486;14.542;2023-02-15T16:56:22;82.97;;;29.60;;
54575;SDS011;40472;53.486;14.542;2023-02-15T16:58:51;86.78;;;30.33;;
54575;SDS011;40472;53.486;14.542;2023-02-15T17:01:20;78.25;;;29.83;;
54575;SDS011;40472;53.486;14.542;2023-02-15T17:03:49;95.85;;;31.25;;
54575;SDS011;40472;53.486;14.542;2023-02-15T17:06:24;74.28;;;26.27;;
54575;SDS011;40472;53.486;14.542;2023-02-15T17:08:51;79.07;;;27.45;;
54575;SDS011;40472;53.486;14.542;2023-02-15T17:11:39;89.47;;;30.05;;
54575;SDS011;40472;53.486;14.542;2023-02-15T17:16:36;45.65;;;18.83;;
54575;SDS011;40472;53.486;14.542;2023-02-15T17:19:09;82.65;;;30.67;;
54575;SDS011;40472;53.486;14.542;2023-02-15T17:21:41;90.57;;;30.55;;
54575;SDS011;40472;53.486;14.542;2023-02-15T17:24:17;89.22;;;25.83;;
54575;SDS011;40472;53.486;14.542;2023-02-15T17:26:50;88.53;;;26.75;;
54575;SDS011;40472;53.486;14.542;2023-02-15T17:32:00;85.32;;;30.13;;
54575;SDS011;40472;53.486;14.542;2023-02-15T17:34:44;83.32;;;31.88;;
54575;SDS011;40472;53.486;14.542;2023-02-15T17:37:23;96.60;;;32.78;;
54575;SDS011;40472;53.486;14.542;2023-02-15T17:39:59;92.10;;;29.42;;
54575;SDS011;40472;53.486;14.542;2023-02-15T17:42:30;85.72;;;28.33;;
54575;SDS011;40472;53.486;14.542;2023-02-15T17:44:56;68.78;;;25.45;;
54575;SDS011;40472;53.486;14.542;2023-02-15T17:47:22;80.90;;;30.45;;
54575;SDS011;40472;53.486;14.542;2023-02-15T17:49:51;100.15;;;29.42;;
54575;SDS011;40472;53.486;14.542;2023-02-15T17:52:18;86.85;;;30.08;;
54575;SDS011;40472;53.486;14.542;2023-02-15T17:54:44;87.80;;;29.50;;
54575;SDS011;40472;53.486;14.542;2023-02-15T17:57:42;78.78;;;27.00;;
54575;SDS011;40472;53.486;14.542;2023-02-15T18:00:13;80.35;;;24.60;;
54575;SDS011;40472;53.486;14.542;2023-02-15T18:02:57;80.82;;;25.92;;
54575;SDS011;40472;53.486;14.542;2023-02-15T18:05:42;80.55;;;27.40;;
54575;SDS011;40472;53.486;14.542;2023-02-15T18:08:26;71.53;;;23.98;;
54575;SDS011;40472;53.486;14.542;2023-02-15T18:11:11;70.78;;;25.30;;
54575;SDS011;40472;53.486;14.542;2023-02-15T18:13:56;79.43;;;26.48;;
54575;SDS011;40472;53.486;14.542;2023-02-15T18:16:25;72.43;;;24.02;;
54575;SDS011;40472;53.486;14.542;2023-02-15T18:18:55;70.72;;;24.95;;